Time;durP1;ratioP1;P1;durP2;ratioP2;P2;SDS_P1;SDS_P2;PMS_P1;PMS_P2;Temp;Humidity;BMP_temperature;BMP_pressure;BME280_temperature;BME280_humidity;BME280_pressure;Samples;Min_cycle;Max_cycle;Signal;HPM_P1;HPM_P2
2023/12/23 00:00:47;;;;;;;0.68;0.20;;;7.40;99.90;;;;;;5032554;28;20049;-52
2023/12/23 00:03:14;;;;;;;0.43;0.17;;;7.40;99.90;;;;;;5033257;28;20387;-55
2023/12/23 00:05:42;;;;;;;0.22;0.00;;;7.40;99.90;;;;;;5032384;28;20099;-52
2023/12/23 00:08:09;;;;;;;0.20;0.10;;;7.40;99.90;;;;;;5028443;28;20045;-54
2023/12/23 00:10:36;;;;;;;0.73;0.20;;;7.50;99.90;;;;;;5032627;28;20493;-54
2023/12/23 00:13:03;;;;;;;0.20;0.03;;;7.40;99.90;;;;;;5032164;28;20041;-55
2023/12/23 00:15:30;;;;;;;2.47;0.20;;;7.40;99.90;;;;;;5026014;28;20050;-52
2023/12/23 00:17:56;;;;;;;0.30;0.10;;;7.30;99.90;;;;;;5032288;28;20418;-54
2023/12/23 00:20:24;;;;;;;0.47;0.10;;;7.30;99.90;;;;;;5032715;28;20037;-54
2023/12/23 00:22:51;;;;;;;1.35;0.10;;;7.20;99.90;;;;;;5031480;28;20052;-59
2023/12/23 00:25:18;;;;;;;;;;;7.30;99.90;;;;;;5019454;28;20464;-57
2023/12/23 00:27:45;;;;;;;0.05;0.00;;;7.40;99.90;;;;;;5031814;28;20443;-56
2023/12/23 00:30:13;;;;;;;0.00;0.00;;;7.50;99.90;;;;;;5014985;28;20057;-56
2023/12/23 00:32:40;;;;;;;0.10;0.00;;;7.80;99.90;;;;;;5032358;28;20069;-52
2023/12/23 00:35:08;;;;;;;0.00;0.00;;;7.80;99.90;;;;;;5013360;28;20041;-54
2023/12/23 00:37:35;;;;;;;0.20;0.10;;;7.80;99.90;;;;;;5032046;28;20466;-52
2023/12/23 00:40:02;;;;;;;0.03;0.00;;;7.70;99.90;;;;;;5026683;28;20038;-56
2023/12/23 00:42:29;;;;;;;0.10;0.00;;;7.80;99.90;;;;;;5012129;28;20091;-55
2023/12/23 00:44:56;;;;;;;0.00;0.00;;;7.80;99.90;;;;;;5017297;28;20490;-52
2023/12/23 00:47:23;;;;;;;0.43;0.13;;;7.90;99.90;;;;;;5030188;28;20573;-54
2023/12/23 00:49:50;;;;;;;0.00;0.00;;;7.90;99.90;;;;;;5012479;28;20605;-53
2023/12/23 00:52:18;;;;;;;0.00;0.00;;;7.90;99.90;;;;;;5028818;28;20037;-52
2023/12/23 00:54:44;;;;;;;0.00;0.00;;;7.80;99.90;;;;;;5029842;28;20056;-52
2023/12/23 00:57:12;;;;;;;0.08;0.00;;;7.70;99.90;;;;;;5024380;28;20524;-51
2023/12/23 00:59:39;;;;;;;1.55;0.00;;;7.80;99.90;;;;;;5033223;28;20045;-53
2023/12/23 01:02:05;;;;;;;0.00;0.00;;;7.80;99.90;;;;;;5038370;28;20044;-57
2023/12/23 01:04:32;;;;;;;0.10;0.00;;;7.90;99.90;;;;;;5050850;28;20041;-51
2023/12/23 01:06:59;;;;;;;0.38;0.00;;;8.10;99.90;;;;;;5034105;28;20139;-52
2023/12/23 01:09:26;;;;;;;0.65;0.17;;;8.20;99.90;;;;;;5032261;28;20059;-52
2023/12/23 01:11:53;;;;;;;0.20;0.08;;;8.10;99.90;;;;;;5032435;28;20047;-51
2023/12/23 01:14:19;;;;;;;0.03;0.00;;;8.00;99.90;;;;;;5034107;28;20060;-56
2023/12/23 01:16:46;;;;;;;0.00;0.00;;;8.00;99.90;;;;;;5051700;28;20037;-53
2023/12/23 01:19:13;;;;;;;0.30;0.17;;;8.00;99.90;;;;;;5017474;28;20037;-51
2023/12/23 01:21:40;;;;;;;0.40;0.10;;;7.90;99.90;;;;;;5034791;28;20492;-54
2023/12/23 01:24:07;;;;;;;0.00;0.00;;;8.30;99.90;;;;;;5033934;28;20048;-52
2023/12/23 01:26:33;;;;;;;0.00;0.00;;;8.30;99.90;;;;;;5051763;28;20037;-53
2023/12/23 01:29:00;;;;;;;0.38;0.00;;;8.40;99.90;;;;;;5013687;28;20049;-51
2023/12/23 01:31:27;;;;;;;0.22;0.10;;;8.70;99.90;;;;;;5052210;28;20116;-55
2023/12/23 01:33:54;;;;;;;0.00;0.00;;;8.60;99.90;;;;;;5028899;28;20037;-52
2023/12/23 01:36:22;;;;;;;0.10;0.00;;;8.50;99.90;;;;;;5033474;28;20045;-51
2023/12/23 01:38:49;;;;;;;0.00;0.00;;;8.50;99.90;;;;;;5033148;28;20048;-55
2023/12/23 01:41:16;;;;;;;0.10;0.00;;;8.40;99.90;;;;;;5032647;28;20037;-54
2023/12/23 01:43:43;;;;;;;0.08;0.08;;;8.20;99.90;;;;;;5040058;28;20033;-55
2023/12/23 01:46:11;;;;;;;1.17;0.10;;;8.40;99.90;;;;;;5049753;28;20425;-53
2023/12/23 01:48:41;;;;;;;0.20;0.10;;;8.50;99.90;;;;;;5050788;28;20051;-51
2023/12/23 01:51:09;;;;;;;0.00;0.00;;;8.70;99.90;;;;;;5025955;28;20048;-51
2023/12/23 01:53:36;;;;;;;0.08;0.00;;;8.60;99.90;;;;;;5051807;28;20076;-55
2023/12/23 01:56:04;;;;;;;0.28;0.00;;;8.50;99.90;;;;;;5051324;28;20067;-52
2023/12/23 01:58:30;;;;;;;;;;;8.50;99.90;;;;;;5032054;28;20045;-52
2023/12/23 02:00:57;;;;;;;0.63;0.00;;;8.30;99.90;;;;;;5049623;28;20323;-52
2023/12/23 02:03:24;;;;;;;0.15;0.00;;;8.20;99.90;;;;;;5051805;28;20047;-53
2023/12/23 02:05:51;;;;;;;0.60;0.00;;;8.10;99.90;;;;;;5043387;28;20037;-51
2023/12/23 02:08:18;;;;;;;0.00;0.00;;;8.20;99.90;;;;;;5051712;28;20124;-51
2023/12/23 02:10:49;;;;;;;0.00;0.00;;;8.50;99.90;;;;;;5032270;28;20521;-55
2023/12/23 02:13:26;;;;;;;0.00;0.00;;;8.50;99.90;;;;;;5030013;28;20044;-52
2023/12/23 02:15:53;;;;;;;0.15;0.03;;;8.60;99.90;;;;;;5050895;28;20076;-51
2023/12/23 02:18:20;;;;;;;;;;;8.60;99.90;;;;;;5050564;28;20040;-51
2023/12/23 02:20:51;;;;;;;0.10;0.00;;;8.60;99.90;;;;;;5033228;28;19932;-51
2023/12/23 02:23:18;;;;;;;0.40;0.20;;;8.50;99.90;;;;;;5042978;28;20048;-53
2023/12/23 02:25:51;;;;;;;0.05;0.05;;;8.40;99.90;;;;;;5036881;28;20106;-51
2023/12/23 02:28:20;;;;;;;0.00;0.00;;;8.30;99.90;;;;;;5033220;28;20698;-51
2023/12/23 02:30:49;;;;;;;0.25;0.10;;;8.30;99.90;;;;;;5049731;28;20049;-51
2023/12/23 02:33:17;;;;;;;2.00;0.17;;;8.20;99.90;;;;;;5026665;28;20041;-53
2023/12/23 02:35:44;;;;;;;0.10;0.00;;;8.40;99.90;;;;;;5050310;28;20048;-51
2023/12/23 02:38:12;;;;;;;2.22;0.10;;;8.40;99.90;;;;;;5049815;28;20390;-51
2023/12/23 02:40:39;;;;;;;0.20;0.00;;;8.40;99.90;;;;;;5032928;28;20508;-52
2023/12/23 02:43:06;;;;;;;0.00;0.00;;;8.30;99.90;;;;;;5040260;28;20037;-51
2023/12/23 02:45:33;;;;;;;0.00;0.00;;;8.20;99.90;;;;;;5033136;28;20055;-51
2023/12/23 02:48:00;;;;;;;0.00;0.00;;;8.20;99.90;;;;;;5032648;28;20402;-51
2023/12/23 02:50:27;;;;;;;0.00;0.00;;;8.20;99.90;;;;;;5047121;28;20049;-52
2023/12/23 02:52:53;;;;;;;0.00;0.00;;;8.20;99.90;;;;;;5031518;28;20049;-52
2023/12/23 02:55:20;;;;;;;0.00;0.00;;;8.20;99.90;;;;;;5033088;28;20059;-53
2023/12/23 02:57:47;;;;;;;0.15;0.00;;;8.30;99.90;;;;;;5048971;28;20049;-51
2023/12/23 03:00:14;;;;;;;0.25;0.00;;;8.30;99.90;;;;;;5031232;28;20048;-53
2023/12/23 03:02:41;;;;;;;0.00;0.00;;;8.30;99.90;;;;;;5024727;28;20040;-53
2023/12/23 03:05:08;;;;;;;0.03;0.00;;;8.20;99.90;;;;;;5050194;28;20033;-51
2023/12/23 03:07:35;;;;;;;0.00;0.00;;;8.10;99.90;;;;;;5049688;28;20548;-53
2023/12/23 03:10:02;;;;;;;0.63;0.03;;;8.00;99.90;;;;;;5033008;28;20056;-54
2023/12/23 03:12:29;;;;;;;;;;;7.90;99.90;;;;;;5033451;28;20079;-52
2023/12/23 03:14:56;;;;;;;0.15;0.10;;;7.80;99.90;;;;;;5036478;28;19921;-53
2023/12/23 03:17:25;;;;;;;0.00;0.00;;;7.60;99.90;;;;;;5054623;28;20056;-51
2023/12/23 03:19:54;;;;;;;0.00;0.00;;;7.50;99.90;;;;;;5044997;28;20430;-52
2023/12/23 03:22:21;;;;;;;0.10;0.10;;;7.60;99.90;;;;;;5046730;28;20134;-51
2023/12/23 03:24:48;;;;;;;0.10;0.03;;;7.60;99.90;;;;;;5054199;28;20048;-51
2023/12/23 03:27:15;;;;;;;;;;;7.60;99.90;;;;;;5037008;28;20103;-51
2023/12/23 03:29:42;;;;;;;0.00;0.00;;;7.50;99.90;;;;;;5038048;28;20427;-52
2023/12/23 03:32:09;;;;;;;0.00;0.00;;;7.40;99.90;;;;;;5054890;28;20116;-52
2023/12/23 03:34:36;;;;;;;;;;;7.20;99.90;;;;;;5053375;28;20135;-51
2023/12/23 03:37:03;;;;;;;0.22;0.00;;;7.20;99.90;;;;;;5047942;28;19968;-52
2023/12/23 03:39:30;;;;;;;0.00;0.00;;;7.20;99.90;;;;;;5046394;28;20107;-51
2023/12/23 03:41:57;;;;;;;0.10;0.10;;;7.30;99.90;;;;;;5035454;28;20522;-52
2023/12/23 03:44:24;;;;;;;0.43;0.10;;;7.30;99.90;;;;;;5035712;28;20501;-54
2023/12/23 03:46:51;;;;;;;0.00;0.00;;;7.20;99.90;;;;;;5033684;28;20051;-51
2023/12/23 03:49:17;;;;;;;1.77;0.00;;;7.20;99.90;;;;;;5053402;28;20033;-52
2023/12/23 03:51:44;;;;;;;0.00;0.00;;;7.10;99.90;;;;;;5052348;28;20049;-54
2023/12/23 03:54:11;;;;;;;0.00;0.00;;;7.20;99.90;;;;;;5028277;28;20036;-53
2023/12/23 03:56:38;;;;;;;0.03;0.00;;;7.10;99.90;;;;;;5049446;28;20072;-52
2023/12/23 03:59:04;;;;;;;0.00;0.00;;;7.00;99.90;;;;;;5053977;28;20112;-51
2023/12/23 04:01:31;;;;;;;0.00;0.00;;;6.90;99.90;;;;;;5035947;28;20049;-53
2023/12/23 04:03:58;;;;;;;;;;;6.80;99.90;;;;;;5023488;28;20041;-51
2023/12/23 04:06:28;;;;;;;0.10;0.00;;;6.90;99.90;;;;;;5035550;28;19927;-53
2023/12/23 04:08:55;;;;;;;0.10;0.00;;;6.80;99.90;;;;;;5053613;28;20426;-53
2023/12/23 04:11:22;;;;;;;0.00;0.00;;;6.80;99.90;;;;;;5052437;28;20544;-52
2023/12/23 04:13:49;;;;;;;0.10;0.05;;;6.80;99.90;;;;;;5048231;28;20055;-52
2023/12/23 04:16:16;;;;;;;0.60;0.00;;;6.70;99.90;;;;;;5035271;28;20057;-51
2023/12/23 04:18:43;;;;;;;0.08;0.05;;;6.70;99.90;;;;;;5035259;28;20068;-53
2023/12/23 04:21:10;;;;;;;0.00;0.00;;;6.60;99.90;;;;;;5045456;28;20124;-52
2023/12/23 04:23:38;;;;;;;0.00;0.00;;;6.60;99.90;;;;;;5033996;28;20135;-52
2023/12/23 04:26:06;;;;;;;0.00;0.00;;;6.60;99.90;;;;;;5034127;28;20029;-51
2023/12/23 04:28:33;;;;;;;0.10;0.05;;;6.60;99.90;;;;;;5051653;28;20486;-55
2023/12/23 04:31:00;;;;;;;0.20;0.00;;;6.60;99.90;;;;;;5050954;28;20501;-55
2023/12/23 04:33:28;;;;;;;0.57;0.00;;;6.60;99.90;;;;;;5053318;28;20040;-51
2023/12/23 04:35:56;;;;;;;0.10;0.10;;;6.60;99.90;;;;;;5051237;28;20045;-53
2023/12/23 04:38:23;;;;;;;0.08;0.03;;;6.60;99.90;;;;;;5050013;28;20040;-51
2023/12/23 04:40:50;;;;;;;0.10;0.10;;;6.60;99.90;;;;;;5035146;28;20037;-54
2023/12/23 04:43:17;;;;;;;;;;;6.50;99.90;;;;;;5034704;28;20049;-52
2023/12/23 04:45:44;;;;;;;0.40;0.30;;;6.40;99.90;;;;;;5035162;28;19920;-51
2023/12/23 04:48:12;;;;;;;1.65;0.28;;;6.40;99.90;;;;;;5029519;28;20041;-51
2023/12/23 04:50:39;;;;;;;1.90;0.20;;;6.40;99.90;;;;;;5035151;28;20064;-52
2023/12/23 04:53:06;;;;;;;0.13;0.13;;;6.40;99.90;;;;;;5034786;28;20045;-53
2023/12/23 04:55:32;;;;;;;1.55;0.20;;;6.40;99.90;;;;;;5046309;28;20040;-52
2023/12/23 04:57:59;;;;;;;0.20;0.10;;;6.40;99.90;;;;;;5048544;28;20051;-52
2023/12/23 05:00:26;;;;;;;0.10;0.10;;;6.50;99.90;;;;;;5034713;28;20253;-53
2023/12/23 05:02:53;;;;;;;0.32;0.28;;;6.50;99.90;;;;;;5051416;28;20043;-55
2023/12/23 05:05:21;;;;;;;2.03;0.40;;;6.40;99.90;;;;;;5046904;28;20045;-53
2023/12/23 05:07:48;;;;;;;0.20;0.20;;;6.40;99.90;;;;;;5034746;28;20037;-54
2023/12/23 05:10:18;;;;;;;0.50;0.20;;;6.40;99.90;;;;;;5046141;28;20037;-53
2023/12/23 05:12:46;;;;;;;0.32;0.10;;;6.40;99.90;;;;;;5039349;28;20397;-51
2023/12/23 05:15:12;;;;;;;0.40;0.00;;;6.40;99.90;;;;;;5034230;28;20045;-52
2023/12/23 05:17:39;;;;;;;0.40;0.10;;;6.40;99.90;;;;;;5050891;28;20043;-54
2023/12/23 05:20:10;;;;;;;0.25;0.13;;;6.40;99.90;;;;;;5046911;28;20095;-54
2023/12/23 05:22:37;;;;;;;0.17;0.13;;;6.30;99.90;;;;;;5034408;28;20045;-55
2023/12/23 05:25:04;;;;;;;0.10;0.10;;;6.30;99.90;;;;;;5050699;28;20037;-52
2023/12/23 05:27:31;;;;;;;0.50;0.50;;;6.30;99.90;;;;;;5029732;28;20041;-52
2023/12/23 05:29:58;;;;;;;0.10;0.10;;;6.30;99.90;;;;;;5026366;28;20077;-51
2023/12/23 05:32:24;;;;;;;0.30;0.15;;;6.30;99.90;;;;;;5052041;28;20047;-52
2023/12/23 05:34:54;;;;;;;1.45;0.65;;;6.30;99.90;;;;;;5039077;28;20072;-52
2023/12/23 05:37:20;;;;;;;0.88;0.30;;;6.30;99.90;;;;;;5049791;28;20073;-55
2023/12/23 05:39:48;;;;;;;1.02;0.55;;;6.30;99.90;;;;;;5050664;28;20048;-52
2023/12/23 05:42:15;;;;;;;0.63;0.43;;;6.30;99.90;;;;;;5046257;28;20045;-51
2023/12/23 05:44:41;;;;;;;1.63;0.60;;;6.20;99.90;;;;;;5051812;28;20115;-52
2023/12/23 05:47:08;;;;;;;1.52;0.30;;;6.20;99.90;;;;;;5050591;28;20128;-53
2023/12/23 05:49:35;;;;;;;3.15;0.70;;;6.20;99.90;;;;;;5043247;28;20112;-54
2023/12/23 05:52:02;;;;;;;2.28;0.40;;;6.10;99.90;;;;;;5045086;28;20051;-52
2023/12/23 05:54:29;;;;;;;1.15;0.73;;;6.20;99.90;;;;;;5050490;28;20059;-55
2023/12/23 05:56:55;;;;;;;0.95;0.28;;;6.20;99.90;;;;;;5051235;28;20051;-54
2023/12/23 05:59:23;;;;;;;0.25;0.25;;;6.20;99.90;;;;;;5038095;28;20125;-53
2023/12/23 06:01:52;;;;;;;1.00;0.30;;;6.20;99.90;;;;;;5042671;28;20037;-55
2023/12/23 06:04:18;;;;;;;0.28;0.20;;;6.20;99.90;;;;;;5050079;28;20064;-52
2023/12/23 06:06:45;;;;;;;0.63;0.20;;;6.20;99.90;;;;;;5043397;28;20037;-51
2023/12/23 06:09:12;;;;;;;0.28;0.28;;;6.20;99.90;;;;;;5051591;28;20048;-55
2023/12/23 06:11:39;;;;;;;0.77;0.50;;;6.20;99.90;;;;;;5050810;28;20040;-51
2023/12/23 06:14:05;;;;;;;0.93;0.40;;;6.20;99.90;;;;;;5051529;28;20045;-52
2023/12/23 06:16:40;;;;;;;1.25;0.30;;;6.10;99.90;;;;;;5050115;28;20098;-51
2023/12/23 06:19:07;;;;;;;1.00;0.35;;;6.10;99.90;;;;;;5051686;28;20414;-54
2023/12/23 06:21:34;;;;;;;0.90;0.43;;;6.10;99.90;;;;;;5051300;28;20098;-51
2023/12/23 06:24:01;;;;;;;1.02;0.60;;;6.10;99.90;;;;;;5044645;28;20486;-54
2023/12/23 06:26:28;;;;;;;0.52;0.52;;;6.10;99.90;;;;;;5049806;28;20045;-53
2023/12/23 06:28:54;;;;;;;0.70;0.30;;;6.10;99.90;;;;;;5049159;28;20508;-52
2023/12/23 06:31:22;;;;;;;0.17;0.13;;;6.00;99.90;;;;;;5050604;28;20122;-53
2023/12/23 06:33:49;;;;;;;;;;;6.00;99.90;;;;;;5042057;28;20040;-52
2023/12/23 06:36:16;;;;;;;0.90;0.43;;;6.10;99.90;;;;;;5050572;28;19960;-51
2023/12/23 06:38:43;;;;;;;1.48;0.32;;;6.10;99.90;;;;;;5050404;28;20129;-51
2023/12/23 06:41:11;;;;;;;1.13;0.80;;;6.10;99.90;;;;;;5043723;28;20038;-52
2023/12/23 06:43:38;;;;;;;0.40;0.40;;;6.10;99.90;;;;;;5049969;28;20037;-53
2023/12/23 06:46:18;;;;;;;0.95;0.43;;;6.10;99.90;;;;;;5046718;28;20098;-56
2023/12/23 06:48:45;;;;;;;1.40;0.75;;;6.10;99.90;;;;;;5053658;28;20064;-52
2023/12/23 06:51:12;;;;;;;1.50;0.93;;;6.10;99.90;;;;;;5035892;28;20048;-55
2023/12/23 06:53:39;;;;;;;3.00;1.75;;;6.10;99.90;;;;;;5054870;28;20095;-54
2023/12/23 06:56:06;;;;;;;1.75;0.88;;;6.00;99.90;;;;;;5054138;28;20120;-53
2023/12/23 06:58:34;;;;;;;0.88;0.40;;;5.90;99.90;;;;;;5051417;28;20124;-55
2023/12/23 07:01:01;;;;;;;;;;;5.90;99.90;;;;;;5049710;28;20064;-53
2023/12/23 07:03:28;;;;;;;1.15;0.60;;;5.90;99.90;;;;;;5048505;28;19943;-57
2023/12/23 07:05:55;;;;;;;0.32;0.32;;;5.90;99.90;;;;;;5053524;28;20045;-54
2023/12/23 07:08:22;;;;;;;0.40;0.38;;;5.90;99.90;;;;;;5053440;28;20048;-57
2023/12/23 07:10:50;;;;;;;0.30;0.30;;;5.90;99.90;;;;;;5051105;28;20383;-54
2023/12/23 07:13:17;;;;;;;0.47;0.43;;;5.90;99.90;;;;;;5054239;28;20056;-55
2023/12/23 07:15:43;;;;;;;1.27;0.57;;;5.90;99.90;;;;;;5053934;28;20048;-55
2023/12/23 07:18:10;;;;;;;1.42;0.85;;;5.90;99.90;;;;;;5053608;28;20051;-57
2023/12/23 07:20:39;;;;;;;;;;;5.90;99.90;;;;;;5045965;28;20114;-54
2023/12/23 07:23:06;;;;;;;3.38;1.73;;;5.90;99.90;;;;;;5053930;28;19967;-54
2023/12/23 07:25:33;;;;;;;1.05;0.77;;;5.90;99.90;;;;;;5054350;28;20481;-58
2023/12/23 07:28:00;;;;;;;0.88;0.70;;;5.90;99.90;;;;;;5036327;28;20037;-54
2023/12/23 07:30:27;;;;;;;1.00;0.63;;;5.90;99.90;;;;;;5033965;28;20041;-53
2023/12/23 07:32:54;;;;;;;1.15;0.82;;;5.80;99.90;;;;;;5054386;28;20045;-55
2023/12/23 07:35:21;;;;;;;;;;;5.90;99.90;;;;;;5054310;28;20037;-52
2023/12/23 07:37:50;;;;;;;2.03;1.30;;;5.90;99.90;;;;;;5053876;28;19970;-55
2023/12/23 07:40:17;;;;;;;1.20;0.60;;;5.90;99.90;;;;;;5035300;28;20445;-54
2023/12/23 07:42:44;;;;;;;1.88;1.10;;;5.90;99.90;;;;;;5053969;28;20385;-52
2023/12/23 07:45:11;;;;;;;1.92;1.52;;;5.90;99.90;;;;;;5053693;28;20041;-54
2023/12/23 07:47:38;;;;;;;1.17;0.82;;;5.90;99.90;;;;;;5048503;28;20041;-54
2023/12/23 07:50:05;;;;;;;1.90;1.10;;;5.90;99.90;;;;;;5048487;28;20115;-55
2023/12/23 07:52:32;;;;;;;0.55;0.45;;;5.90;99.90;;;;;;5035489;28;20045;-57
2023/12/23 07:54:59;;;;;;;0.85;0.50;;;5.90;99.90;;;;;;5053127;28;20047;-52
2023/12/23 07:57:26;;;;;;;1.85;0.88;;;5.90;99.90;;;;;;5042903;28;20041;-52
2023/12/23 07:59:53;;;;;;;2.70;1.05;;;5.90;99.90;;;;;;5034051;28;20063;-52
2023/12/23 08:02:19;;;;;;;1.50;0.68;;;5.90;99.90;;;;;;5053753;28;20363;-53
2023/12/23 08:04:47;;;;;;;1.00;0.50;;;5.90;99.90;;;;;;5053957;28;20033;-53
2023/12/23 08:07:14;;;;;;;1.90;1.00;;;5.90;99.90;;;;;;5045097;28;20059;-52
2023/12/23 08:09:41;;;;;;;2.60;1.00;;;5.90;99.90;;;;;;5035883;28;20048;-52
2023/12/23 08:12:08;;;;;;;2.58;1.35;;;5.90;99.90;;;;;;5053881;28;20123;-53
2023/12/23 08:14:35;;;;;;;0.77;0.50;;;5.90;99.90;;;;;;5051894;28;20079;-55
2023/12/23 08:17:02;;;;;;;3.60;1.35;;;5.80;99.90;;;;;;5052216;28;20124;-52
2023/12/23 08:19:29;;;;;;;4.70;2.13;;;5.80;99.90;;;;;;5052783;28;20036;-53
2023/12/23 08:21:56;;;;;;;5.03;2.50;;;5.90;99.90;;;;;;5053389;28;20033;-54
2023/12/23 08:24:22;;;;;;;5.15;2.70;;;5.90;99.90;;;;;;5046342;28;20060;-60
2023/12/23 08:26:49;;;;;;;4.47;2.00;;;5.90;99.90;;;;;;5048172;28;20025;-55
2023/12/23 08:29:16;;;;;;;4.85;2.50;;;5.90;99.90;;;;;;5050688;28;20063;-58
2023/12/23 08:31:44;;;;;;;2.42;1.17;;;5.90;99.90;;;;;;5050041;28;20057;-58
2023/12/23 08:34:11;;;;;;;4.90;2.58;;;5.90;99.90;;;;;;5051360;28;20040;-58
2023/12/23 08:36:38;;;;;;;3.00;1.48;;;5.90;99.90;;;;;;5034365;28;20102;-60
2023/12/23 08:39:05;;;;;;;3.25;1.42;;;5.90;99.90;;;;;;5052164;28;20044;-56
2023/12/23 08:41:32;;;;;;;1.33;1.05;;;5.90;99.90;;;;;;5046636;28;20379;-56
2023/12/23 08:43:58;;;;;;;1.23;0.80;;;6.00;99.90;;;;;;5046417;28;20482;-59
2023/12/23 08:46:25;;;;;;;2.97;1.85;;;5.90;99.90;;;;;;5052126;28;20559;-55
2023/12/23 08:48:52;;;;;;;1.52;0.70;;;6.00;99.90;;;;;;5044277;28;20489;-57
2023/12/23 08:51:19;;;;;;;2.80;1.25;;;6.00;99.90;;;;;;5044201;28;20046;-59
2023/12/23 08:53:46;;;;;;;1.42;0.98;;;5.90;99.90;;;;;;5051957;28;20041;-57
2023/12/23 08:56:13;;;;;;;1.88;1.25;;;5.90;99.90;;;;;;5052278;28;20041;-59
2023/12/23 08:58:39;;;;;;;2.30;1.60;;;5.90;99.90;;;;;;5053009;28;20508;-58
2023/12/23 09:01:06;;;;;;;1.52;0.90;;;6.00;99.90;;;;;;5048725;28;20041;-59
2023/12/23 09:03:33;;;;;;;5.32;1.90;;;6.00;99.90;;;;;;5052766;28;20497;-59
2023/12/23 09:06:00;;;;;;;1.90;1.15;;;6.00;99.90;;;;;;5050661;28;20068;-58
2023/12/23 09:08:27;;;;;;;5.25;1.00;;;6.00;99.90;;;;;;5052391;28;20045;-59
2023/12/23 09:10:54;;;;;;;1.55;1.00;;;6.10;99.90;;;;;;5044107;28;20482;-58
2023/12/23 09:13:20;;;;;;;5.03;0.98;;;6.00;99.90;;;;;;5052585;28;20558;-58
2023/12/23 09:15:47;;;;;;;1.42;0.90;;;6.00;99.90;;;;;;5049935;28;20040;-57
2023/12/23 09:18:14;;;;;;;3.55;0.60;;;6.00;99.90;;;;;;5052471;28;20493;-57
2023/12/23 09:20:41;;;;;;;4.45;0.85;;;6.00;99.90;;;;;;5051840;28;20047;-58
2023/12/23 09:23:08;;;;;;;4.28;2.05;;;6.00;99.90;;;;;;5050700;28;20130;-59
2023/12/23 09:25:35;;;;;;;3.47;1.58;;;6.00;99.90;;;;;;5050139;28;20033;-58
2023/12/23 09:28:02;;;;;;;2.85;1.52;;;6.10;99.90;;;;;;5051425;28;20055;-58
2023/12/23 09:30:28;;;;;;;2.03;1.20;;;6.10;99.90;;;;;;5051035;28;20041;-60
2023/12/23 09:32:56;;;;;;;2.33;1.13;;;6.10;99.90;;;;;;5047017;28;20056;-58
2023/12/23 09:35:23;;;;;;;1.50;0.75;;;6.10;99.90;;;;;;5050496;28;20051;-58
2023/12/23 09:37:50;;;;;;;1.70;0.90;;;6.10;99.90;;;;;;5050109;28;20041;-58
2023/12/23 09:40:17;;;;;;;1.98;0.90;;;6.10;99.90;;;;;;5049674;28;20037;-59
2023/12/23 09:42:44;;;;;;;2.20;1.13;;;6.10;99.90;;;;;;5045825;28;20047;-57
2023/12/23 09:45:16;;;;;;;2.03;1.00;;;6.10;99.90;;;;;;5050290;28;20037;-56
2023/12/23 09:47:43;;;;;;;2.58;1.50;;;6.20;99.90;;;;;;5050327;28;20036;-59
2023/12/23 09:50:10;;;;;;;3.45;2.20;;;6.20;99.90;;;;;;5048854;28;20041;-58
2023/12/23 09:52:37;;;;;;;2.45;1.58;;;6.20;99.90;;;;;;5048469;28;20444;-58
2023/12/23 09:55:04;;;;;;;2.45;1.40;;;6.20;99.90;;;;;;5050889;28;20052;-57
2023/12/23 09:57:33;;;;;;;2.60;1.38;;;6.30;99.90;;;;;;5049767;28;20045;-57
2023/12/23 10:00:00;;;;;;;4.07;2.20;;;6.40;99.90;;;;;;5043487;28;20033;-57
2023/12/23 10:02:27;;;;;;;3.95;1.75;;;6.40;99.90;;;;;;5050817;28;20044;-55
2023/12/23 10:04:54;;;;;;;3.33;2.03;;;6.40;99.90;;;;;;5050353;28;20490;-57
2023/12/23 10:07:21;;;;;;;7.55;4.35;;;6.40;99.90;;;;;;5047283;28;20049;-57
2023/12/23 10:09:49;;;;;;;3.65;2.33;;;6.40;99.90;;;;;;5048668;28;20112;-58
2023/12/23 10:12:17;;;;;;;4.18;1.85;;;6.40;99.90;;;;;;5050793;28;20068;-58
2023/12/23 10:14:44;;;;;;;2.42;0.90;;;6.40;99.90;;;;;;5049547;28;20056;-59
2023/12/23 10:17:11;;;;;;;;;;;6.40;99.90;;;;;;5050859;28;20095;-55
2023/12/23 10:19:38;;;;;;;9.25;2.60;;;6.40;99.90;;;;;;5050654;28;19963;-56
2023/12/23 10:22:06;;;;;;;6.22;2.78;;;6.40;99.90;;;;;;5041573;28;20044;-60
2023/12/23 10:24:37;;;;;;;5.22;2.15;;;6.40;99.90;;;;;;5050510;28;20128;-58
2023/12/23 10:27:05;;;;;;;4.32;2.08;;;6.50;99.90;;;;;;5046893;28;20485;-58
2023/12/23 10:29:32;;;;;;;;;;;6.40;99.90;;;;;;5051127;28;20122;-58
2023/12/23 10:32:04;;;;;;;10.97;5.73;;;6.40;99.90;;;;;;5047985;28;19928;-59
2023/12/23 10:34:44;;;;;;;11.45;4.80;;;6.50;99.90;;;;;;5050233;28;20292;-55
2023/12/23 10:37:11;;;;;;;20.13;7.75;;;6.50;99.90;;;;;;5043289;28;20052;-59
2023/12/23 10:39:47;;;;;;;8.68;2.80;;;6.50;99.90;;;;;;5047443;28;20132;-55
2023/12/23 10:42:20;;;;;;;4.20;1.98;;;6.50;99.90;;;;;;5048127;28;20045;-58
2023/12/23 10:44:48;;;;;;;3.88;1.10;;;6.50;99.90;;;;;;5049873;28;20075;-56
2023/12/23 10:47:15;;;;;;;3.50;1.13;;;6.60;99.90;;;;;;5050166;28;20068;-57
2023/12/23 10:49:45;;;;;;;6.38;2.85;;;6.60;99.90;;;;;;5046241;28;20037;-58
2023/12/23 10:52:13;;;;;;;4.40;1.77;;;6.60;99.90;;;;;;5038907;28;20084;-56
2023/12/23 10:54:40;;;;;;;1.92;1.30;;;6.70;99.90;;;;;;5046343;28;20045;-57
2023/12/23 10:57:09;;;;;;;4.10;1.80;;;6.70;99.90;;;;;;5047755;28;20036;-55
2023/12/23 10:59:36;;;;;;;3.03;1.65;;;6.80;99.90;;;;;;5046380;28;20049;-59
2023/12/23 11:02:15;;;;;;;2.78;0.65;;;6.80;99.90;;;;;;5050128;28;20033;-58
2023/12/23 11:04:47;;;;;;;3.17;2.28;;;6.90;99.90;;;;;;5049916;28;21180;-56
2023/12/23 11:07:16;;;;;;;3.95;0.90;;;6.90;99.90;;;;;;5045883;28;20052;-58
2023/12/23 11:09:46;;;;;;;1.70;0.93;;;6.90;99.90;;;;;;5032594;28;20048;-59
2023/12/23 11:12:14;;;;;;;1.00;0.73;;;6.90;99.90;;;;;;5050538;28;20045;-54
2023/12/23 11:14:41;;;;;;;3.05;1.65;;;6.90;99.90;;;;;;5049227;28;20496;-59
2023/12/23 11:17:26;;;;;;;2.47;1.60;;;6.90;99.90;;;;;;5043897;28;20505;-59
2023/12/23 11:19:58;;;;;;;1.13;0.75;;;6.90;99.90;;;;;;5046976;28;20041;-55
2023/12/23 11:22:36;;;;;;;1.00;0.80;;;6.90;99.90;;;;;;5049216;28;20132;-56
2023/12/23 11:25:03;;;;;;;2.08;1.10;;;6.90;99.90;;;;;;5049093;28;20049;-60
2023/12/23 11:27:36;;;;;;;4.47;1.77;;;6.90;99.90;;;;;;5049776;28;20134;-56
2023/12/23 11:30:06;;;;;;;4.63;1.90;;;6.90;99.90;;;;;;5049961;28;20055;-58
2023/12/23 11:32:39;;;;;;;4.20;1.60;;;6.90;99.90;;;;;;5045178;28;20049;-58
2023/12/23 11:35:08;;;;;;;8.52;2.03;;;6.90;99.90;;;;;;5053280;28;20488;-58
2023/12/23 11:38:05;;;;;;;5.10;1.30;;;6.90;99.90;;;;;;5053685;28;20048;-54
2023/12/23 11:40:33;;;;;;;6.15;2.55;;;6.80;99.90;;;;;;5045079;28;20116;-56
2023/12/23 11:43:00;;;;;;;4.22;2.20;;;6.70;99.90;;;;;;5044540;28;20052;-58
2023/12/23 11:45:27;;;;;;;;;;;6.70;99.90;;;;;;5053972;28;20114;-59
2023/12/23 11:47:54;;;;;;;5.78;3.03;;;6.70;99.90;;;;;;5053026;28;19943;-59
2023/12/23 11:50:26;;;;;;;6.35;3.95;;;6.80;99.90;;;;;;5048592;28;20068;-58
2023/12/23 11:52:53;;;;;;;4.53;2.20;;;6.80;99.90;;;;;;5053281;28;20052;-57
2023/12/23 11:55:20;;;;;;;;;;;6.90;99.90;;;;;;5053152;28;20047;-59
2023/12/23 11:57:47;;;;;;;6.43;2.42;;;6.90;99.90;;;;;;5049778;28;19943;-57
2023/12/23 12:00:14;;;;;;;5.80;2.65;;;6.80;99.90;;;;;;5053330;28;20049;-59
2023/12/23 12:02:41;;;;;;;;;;;6.90;99.90;;;;;;5052897;28;20033;-58
2023/12/23 12:05:08;;;;;;;2.50;1.55;;;7.00;99.90;;;;;;5049544;28;19924;-58
2023/12/23 12:07:35;;;;;;;1.95;0.40;;;7.10;99.90;;;;;;5047814;28;20040;-57
2023/12/23 12:10:02;;;;;;;0.73;0.50;;;7.30;99.90;;;;;;5051393;28;20041;-57
2023/12/23 12:12:29;;;;;;;4.05;2.53;;;7.50;99.90;;;;;;5053154;28;20123;-55
2023/12/23 12:14:56;;;;;;;1.13;0.90;;;7.50;99.90;;;;;;5046165;28;20046;-58
2023/12/23 12:17:26;;;;;;;1.55;1.00;;;7.40;99.90;;;;;;5052539;28;20068;-58
2023/12/23 12:19:54;;;;;;;1.30;0.90;;;7.60;99.90;;;;;;5052751;28;20055;-56
2023/12/23 12:22:21;;;;;;;3.70;1.90;;;7.70;99.90;;;;;;5051926;28;20140;-58
2023/12/23 12:24:48;;;;;;;6.75;2.75;;;7.70;99.90;;;;;;5052624;28;20048;-59
2023/12/23 12:27:15;;;;;;;5.82;3.53;;;7.80;99.90;;;;;;5052851;28;20482;-56
2023/12/23 12:29:42;;;;;;;13.43;6.25;;;7.80;99.90;;;;;;5052809;28;20051;-58
2023/12/23 12:32:13;;;;;;;5.25;1.90;;;7.80;99.90;;;;;;5050470;28;20044;-58
2023/12/23 12:34:39;;;;;;;5.68;3.20;;;7.80;99.90;;;;;;5052519;28;20041;-57
2023/12/23 12:37:08;;;;;;;5.32;2.67;;;8.10;99.90;;;;;;5052110;28;20037;-59
2023/12/23 12:39:35;;;;;;;1.80;0.68;;;8.10;99.90;;;;;;5052802;28;20442;-57
2023/12/23 12:42:03;;;;;;;3.45;1.40;;;8.30;99.90;;;;;;5050672;28;20052;-59
2023/12/23 12:44:31;;;;;;;3.45;1.75;;;8.70;99.90;;;;;;5052198;28;20335;-59
2023/12/23 12:46:58;;;;;;;8.93;4.10;;;8.70;99.90;;;;;;5051853;28;20049;-57
2023/12/23 12:49:25;;;;;;;4.45;1.92;;;8.60;99.90;;;;;;5047180;28;20502;-60
2023/12/23 12:51:53;;;;;;;2.22;1.30;;;8.60;99.90;;;;;;5052271;28;20506;-56
2023/12/23 12:54:21;;;;;;;2.15;0.60;;;8.90;99.90;;;;;;5052160;28;20079;-57
2023/12/23 12:56:48;;;;;;;0.82;0.20;;;9.20;99.90;;;;;;5050177;28;20056;-54
2023/12/23 12:59:14;;;;;;;0.60;0.10;;;9.30;99.90;;;;;;5052209;28;20051;-59
2023/12/23 13:01:42;;;;;;;0.88;0.60;;;9.50;99.90;;;;;;5045419;28;20526;-56